WBR weather

Roben Hood Airport
Big Rapids, Michigan, United States

Public forecast

Using degrees Fahrenheit for public forecast. Weather courtesy of forecast.io.

METAR (pilot weather report)

Retrieved 2019/07/24 02:35 UTC (0 seconds ago):

KRQB 240235Z AUTO 01005KT 10SM CLR 16/10 A3009 RMK AO2 T01640100

TAF (pilot weather forecast)

Forecast is more than 12 hours old.

Closest forecast is Manistee Co Blacker Airport, 46.0 nm (85.3 km) NW. Retrieved 2019/07/23 00:24 UTC (1 day ago):

TAF KMBL 232321Z 2400/2424 33005KT P6SM FEW250 FM240200 VRB03KT P6SM FEW250 FM241700 26005KT P6SM FEW050